Список аэропортов
Фактическая погода:

26 июня, 23:00
Температура: +7°C (+6.9*)
Ветер: перем. 1 м/с
Давление: *762 мм
Без существ. явл.
Время (МСК)Темп. СВетерВлажностьДавлениеОблачностьОсадки
20:00+11Штиль 88%1017 гПаясно
21:00+8В, 1 м/с92%1017 гПамалооблачно
22:00+7ЮВ, 1 м/с93%1017 гПамалооблачно
23:00+5ЮВ, 1 м/с95%1017 гПаясно
27 июня
00:00+4Штиль 96%1017 гПаясно
01:00+3Штиль 97%1017 гПаясно
02:00+4ЮВ, 1 м/с97%1017 гПаясно
03:00+5В, 1 м/с96%1017 гПаясно
04:00+8Штиль 90%1017 гПаясно
05:00+12ЮВ, 1 м/с70%1016 гПаясно
06:00+16ЮВ, 2 м/с52%1016 гПаясно
07:00+18ЮВ, 2 м/с42%1015 гПаясно
08:00+19ЮВ, 2 м/с36%1015 гПамалооблачно
09:00+20ЮВ, 2 м/с34%1015 гПамалооблачно
10:00+20ЮВ, 2 м/с32%1014 гПаоблачно
11:00+21ЮВ, 2 м/с31%1014 гПас прояснениями
12:00+21ЮВ, 1 м/с30%1013 гПаоблачно
13:00+22ЮВ, 1 м/с29%1012 гПас прояснениями
14:00+22ЮВ, 1 м/с29%1012 гПамалооблачно
15:00+22ЮВ, 1 м/с30%1011 гПамалооблачно
16:00+21ЮВ, 1 м/с31%1011 гПамалооблачно
17:00+20ЮВ, 1 м/с36%1011 гПас прояснениями
18:00+18В, 1 м/с50%1011 гПас прояснениями
19:00+16В, 1 м/с71%1011 гПас прояснениями
20:00+14СВ, 1 м/с73%1011 гПаоблачно
21:00+13В, 1 м/с76%1011 гПаоблачно
22:00+13В, 1 м/с74%1011 гПаоблачно
23:00+13В, 2 м/с72%1011 гПаоблачно
28 июня
00:00+13В, 2 м/с68%1011 гПаоблачно
01:00+13В, 2 м/с65%1012 гПаоблачно
02:00+12В, 2 м/с66%1012 гПаоблачно
03:00+12В, 2 м/с69%1012 гПаоблачно
04:00+12В, 2 м/с68%1011 гПаоблачно
05:00+14В, 2 м/с62%1011 гПас прояснениями
06:00+17В, 2 м/с54%1011 гПамалооблачно
07:00+19В, 2 м/с46%1011 гПамалооблачно
08:00+21В, 3 м/с39%1010 гПаясно
09:00+22В, 4 м/с35%1010 гПамалооблачно
10:00+22В, 4 м/с32%1009 гПамалооблачно
11:00+23В, 4 м/с31%1009 гПамалооблачно
12:00+23В, 4 м/с30%1009 гПас прояснениями
13:00+23В, 4 м/с30%1008 гПас прояснениями
14:00+23В, 4 м/с31%1008 гПаоблачно
15:00+23В, 4 м/с32%1007 гПамалооблачно
16:00+22В, 4 м/с35%1007 гПаоблачно
17:00+22В, 3 м/с37%1007 гПас прояснениями
18:00+20В, 2 м/с45%1007 гПаясно
19:00+18В, 2 м/с56%1007 гПас прояснениями
20:00+16В, 2 м/с66%1007 гПас прояснениями